createdAt,value
2018-04-15T00:00:39.133Z,62.83
2018-04-15T00:03:11.031Z,65.97
2018-04-15T00:05:49.956Z,66.87
2018-04-15T00:08:20.327Z,71.90
2018-04-15T00:10:50.123Z,60.80
2018-04-15T00:13:20.233Z,69.60
2018-04-15T00:18:44.561Z,68.03
2018-04-15T00:21:41.132Z,72.20
2018-04-15T00:24:11.288Z,74.03
2018-04-15T00:26:40.785Z,71.07
2018-04-15T00:32:13.960Z,69.87
2018-04-15T00:34:46.900Z,72.00
2018-04-15T00:37:31.006Z,73.33
2018-04-15T00:40:03.349Z,77.50
2018-04-15T00:42:32.906Z,78.17
2018-04-15T00:45:20.404Z,83.37
2018-04-15T00:48:08.328Z,84.43
2018-04-15T00:50:38.404Z,91.33
2018-04-15T00:53:14.728Z,87.73
2018-04-15T00:55:50.354Z,80.43
2018-04-15T00:58:22.400Z,82.07
2018-04-15T01:00:52.486Z,73.60
2018-04-15T01:03:22.953Z,77.50
2018-04-15T01:05:52.333Z,84.40
2018-04-15T01:08:22.695Z,84.83
2018-04-15T01:10:52.105Z,84.50
2018-04-15T01:13:21.544Z,89.60
2018-04-15T01:16:06.401Z,82.40
2018-04-15T01:18:36.658Z,81.27
2018-04-15T01:21:06.106Z,82.97
2018-04-15T01:23:35.430Z,90.17
2018-04-15T01:26:05.029Z,89.30
2018-04-15T01:28:34.420Z,96.73
2018-04-15T01:31:03.797Z,84.33
2018-04-15T01:33:33.257Z,81.83
2018-04-15T01:36:02.658Z,83.37
2018-04-15T01:38:32.177Z,76.93
2018-04-15T01:41:01.768Z,75.93
2018-04-15T01:43:31.234Z,84.33
2018-04-15T01:46:00.544Z,92.23
2018-04-15T01:48:29.929Z,83.93
2018-04-15T01:50:59.401Z,90.43
2018-04-15T01:53:28.729Z,99.23
2018-04-15T01:55:58.921Z,94.07
2018-04-15T01:58:28.349Z,94.20
2018-04-15T02:00:57.742Z,92.90
2018-04-15T02:03:27.199Z,101.47
2018-04-15T02:05:56.628Z,93.57
2018-04-15T02:08:25.939Z,92.47
2018-04-15T02:10:55.399Z,93.03
2018-04-15T02:13:24.879Z,99.87
2018-04-15T02:15:54.484Z,92.80
2018-04-15T02:18:23.896Z,96.83
2018-04-15T02:20:53.205Z,87.67
2018-04-15T02:23:22.632Z,90.10
2018-04-15T02:25:52.082Z,101.50
2018-04-15T02:28:21.475Z,92.30
2018-04-15T02:30:50.903Z,84.03
2018-04-15T02:33:21.058Z,85.07
2018-04-15T02:35:50.478Z,87.37
2018-04-15T02:38:19.827Z,78.37
2018-04-15T02:40:49.342Z,79.73
2018-04-15T02:43:18.666Z,82.37
2018-04-15T02:45:48.119Z,91.20
2018-04-15T02:48:17.582Z,69.33
2018-04-15T02:50:46.914Z,74.97
2018-04-15T02:53:16.333Z,67.03
2018-04-15T02:55:46.243Z,71.23
2018-04-15T02:58:15.577Z,80.90
2018-04-15T03:00:45.021Z,76.70
2018-04-15T03:06:35.277Z,79.53
2018-04-15T03:09:04.942Z,72.30
2018-04-15T03:11:35.201Z,71.93
2018-04-15T03:14:04.644Z,74.63
2018-04-15T03:16:34.242Z,70.40
2018-04-15T03:19:03.729Z,71.53
2018-04-15T03:21:33.189Z,74.53
2018-04-15T03:27:30.641Z,67.53
2018-04-15T03:30:00.061Z,76.87
2018-04-15T03:32:29.459Z,72.90
2018-04-15T03:34:58.857Z,73.60
2018-04-15T03:37:28.288Z,79.10
2018-04-15T03:39:57.794Z,73.23
2018-04-15T03:45:55.151Z,61.83
2018-04-15T03:48:24.635Z,63.93
2018-04-15T03:50:55.177Z,63.87
2018-04-15T03:53:24.600Z,65.53
2018-04-15T03:55:55.558Z,69.20
2018-04-15T03:58:24.989Z,64.77
2018-04-15T04:00:54.444Z,62.73
2018-04-15T04:03:24.016Z,63.33
2018-04-15T04:05:53.602Z,65.17
2018-04-15T04:08:23.402Z,62.07
2018-04-15T04:10:52.967Z,61.57
2018-04-15T04:16:53.406Z,57.77
2018-04-15T04:19:33.946Z,52.90
2018-04-15T04:22:14.366Z,50.63
2018-04-15T04:25:10.759Z,37.70
2018-04-15T04:27:40.092Z,34.63
2018-04-15T04:30:09.487Z,51.57
2018-04-15T04:32:38.922Z,38.73
2018-04-15T04:35:08.289Z,46.63
2018-04-15T04:37:37.589Z,52.28
2018-04-15T04:40:06.856Z,58.70
2018-04-15T04:42:36.980Z,43.03
2018-04-15T04:45:06.291Z,43.80
2018-04-15T04:47:35.747Z,40.40
2018-04-15T04:50:05.136Z,38.73
2018-04-15T04:52:39.718Z,37.17
2018-04-15T04:55:09.235Z,35.13
2018-04-15T05:01:00.135Z,37.37
2018-04-15T05:03:29.524Z,41.83
2018-04-15T05:05:58.916Z,45.37
2018-04-15T05:08:29.129Z,41.47
2018-04-15T05:14:19.895Z,43.93
2018-04-15T05:16:49.214Z,46.83
2018-04-15T05:19:20.244Z,44.40
2018-04-15T05:21:51.748Z,43.43
2018-04-15T05:24:22.811Z,44.10
2018-04-15T05:26:57.411Z,44.00
2018-04-15T05:29:28.534Z,43.97
2018-04-15T05:32:00.456Z,44.33
2018-04-15T05:34:33.759Z,46.23
2018-04-15T05:37:04.010Z,44.80
2018-04-15T05:39:33.391Z,47.80
2018-04-15T05:42:02.727Z,49.50
2018-04-15T05:44:32.041Z,48.07
2018-04-15T05:47:01.441Z,53.80
2018-04-15T05:49:30.788Z,54.73
2018-04-15T05:52:00.118Z,58.13
2018-04-15T05:54:29.534Z,56.87
2018-04-15T05:56:59.128Z,59.77
2018-04-15T05:59:28.519Z,57.37
2018-04-15T06:01:57.973Z,54.90
2018-04-15T06:04:27.944Z,53.87
2018-04-15T06:06:57.607Z,61.37
2018-04-15T06:09:27.130Z,61.20
2018-04-15T06:11:56.432Z,58.07
2018-04-15T06:14:25.742Z,62.27
2018-04-15T06:16:55.135Z,62.70
2018-04-15T06:19:46.604Z,62.80
2018-04-15T06:22:16.201Z,60.63
2018-04-15T06:24:45.644Z,58.37
2018-04-15T06:27:15.224Z,56.53
2018-04-15T06:29:46.201Z,56.33
2018-04-15T06:32:15.800Z,55.70
2018-04-15T06:34:45.318Z,54.23
2018-04-15T06:37:15.048Z,55.00
2018-04-15T06:39:44.677Z,53.73
2018-04-15T06:42:14.509Z,54.10
2018-04-15T06:44:44.247Z,49.83
2018-04-15T06:47:13.816Z,55.30
2018-04-15T06:49:43.500Z,54.33
2018-04-15T06:52:12.974Z,51.07
2018-04-15T06:54:42.561Z,56.90
2018-04-15T06:57:12.023Z,49.97
2018-04-15T06:59:41.820Z,60.40
2018-04-15T07:02:11.529Z,58.27
2018-04-15T07:04:41.007Z,61.40
2018-04-15T07:07:10.553Z,62.67
2018-04-15T07:09:40.310Z,63.70
2018-04-15T07:12:09.953Z,66.53
2018-04-15T07:14:39.464Z,70.97
2018-04-15T07:17:08.937Z,73.73
2018-04-15T07:19:38.507Z,68.83
2018-04-15T07:22:07.941Z,80.50
2018-04-15T07:24:38.245Z,73.00
2018-04-15T07:27:07.727Z,65.40
2018-04-15T07:29:37.181Z,71.77
2018-04-15T07:32:07.709Z,72.50
2018-04-15T07:34:37.143Z,71.23
2018-04-15T07:37:06.695Z,68.13
2018-04-15T07:39:36.953Z,69.47
2018-04-15T07:42:06.516Z,70.10
2018-04-15T07:44:36.066Z,71.83
2018-04-15T07:47:05.608Z,80.23
2018-04-15T07:49:35.016Z,84.83
2018-04-15T07:52:04.609Z,87.90
2018-04-15T07:54:34.191Z,91.20
2018-04-15T07:57:03.701Z,90.83
2018-04-15T07:59:33.119Z,84.23
2018-04-15T08:02:03.502Z,95.23
2018-04-15T08:04:35.371Z,99.40
2018-04-15T08:07:04.946Z,115.57
2018-04-15T08:09:34.380Z,105.40
2018-04-15T08:12:03.902Z,107.47
2018-04-15T08:14:33.429Z,109.97
2018-04-15T08:17:02.870Z,110.60
2018-04-15T08:19:32.397Z,112.27
2018-04-15T08:22:02.643Z,111.77
2018-04-15T08:24:32.164Z,109.90
2018-04-15T08:27:01.596Z,121.80
2018-04-15T08:29:31.210Z,115.13
2018-04-15T08:32:00.633Z,104.60
2018-04-15T08:34:30.225Z,112.73
2018-04-15T08:36:59.704Z,107.20
2018-04-15T08:39:29.229Z,113.70
2018-04-15T08:41:58.710Z,111.70
2018-04-15T08:47:48.907Z,112.10
2018-04-15T08:50:18.474Z,111.77
2018-04-15T08:52:48.822Z,107.63
2018-04-15T08:55:18.414Z,119.87
2018-04-15T08:57:47.830Z,121.93
2018-04-15T09:00:17.351Z,130.27
2018-04-15T09:06:07.275Z,119.77
2018-04-15T09:08:37.516Z,120.03
2018-04-15T09:11:07.043Z,122.37
2018-04-15T09:13:36.523Z,131.47
2018-04-15T09:16:49.220Z,155.77
2018-04-15T09:19:18.752Z,139.77
2018-04-15T09:21:48.189Z,140.50
2018-04-15T09:24:17.772Z,151.50
2018-04-15T09:26:48.022Z,145.40
2018-04-15T09:30:09.408Z,151.77
2018-04-15T09:32:39.012Z,146.50
2018-04-15T09:35:09.267Z,152.70
2018-04-15T09:37:38.830Z,142.63
2018-04-15T09:40:08.288Z,136.73
2018-04-15T09:42:38.118Z,124.57
2018-04-15T09:45:08.461Z,122.97
2018-04-15T09:47:38.735Z,119.63
2018-04-15T09:50:08.321Z,104.30
2018-04-15T09:52:37.908Z,107.43
2018-04-15T09:55:07.462Z,105.80
2018-04-15T09:57:38.196Z,111.53
2018-04-15T10:00:07.980Z,106.83
2018-04-15T10:02:37.549Z,108.53
2018-04-15T10:05:07.248Z,113.73
2018-04-15T10:07:36.974Z,116.77
2018-04-15T10:10:06.393Z,109.90
2018-04-15T10:12:35.935Z,117.20
2018-04-15T10:15:05.583Z,114.87
2018-04-15T10:17:35.170Z,110.17
2018-04-15T10:20:04.813Z,109.87
2018-04-15T10:22:34.337Z,110.63
2018-04-15T10:25:03.797Z,118.13
2018-04-15T10:27:33.429Z,106.60
2018-04-15T10:30:03.074Z,125.37
2018-04-15T10:32:32.489Z,119.33
2018-04-15T10:35:02.091Z,106.00
2018-04-15T10:37:32.290Z,98.73
2018-04-15T10:40:02.337Z,103.90
2018-04-15T10:42:31.758Z,98.67
2018-04-15T10:45:01.258Z,99.17
2018-04-15T10:47:30.833Z,99.20
2018-04-15T10:50:00.253Z,92.73
2018-04-15T10:52:30.507Z,105.53
2018-04-15T10:54:59.984Z,92.67
2018-04-15T10:57:29.481Z,91.30
2018-04-15T10:59:59.092Z,101.83
2018-04-15T11:02:28.665Z,96.57
2018-04-15T11:04:59.768Z,106.77
2018-04-15T11:07:29.338Z,105.80
2018-04-15T11:09:58.808Z,111.60
2018-04-15T11:12:29.181Z,122.77
2018-04-15T11:14:58.574Z,111.13
2018-04-15T11:17:28.053Z,105.03
2018-04-15T11:19:57.638Z,101.23
2018-04-15T11:22:27.059Z,103.77
2018-04-15T11:24:59.184Z,111.37
2018-04-15T11:27:29.026Z,100.73
2018-04-15T11:29:58.483Z,102.87
2018-04-15T11:32:27.990Z,99.20
2018-04-15T11:34:57.455Z,92.00
2018-04-15T11:37:27.734Z,95.90
2018-04-15T11:40:31.074Z,96.67
2018-04-15T11:43:00.490Z,100.60
2018-04-15T11:45:29.977Z,105.57
2018-04-15T11:47:59.520Z,109.23
2018-04-15T11:50:29.783Z,101.03
2018-04-15T11:52:59.248Z,158.53
2018-04-15T11:59:00.963Z,298.20
2018-04-15T12:01:30.380Z,250.57
2018-04-15T12:03:59.789Z,163.03
2018-04-15T12:09:50.174Z,125.17
2018-04-15T12:12:20.492Z,112.93
2018-04-15T12:18:18.637Z,102.50
2018-04-15T12:20:48.194Z,90.60
2018-04-15T12:23:17.742Z,82.30
2018-04-15T12:25:48.085Z,74.27
2018-04-15T12:28:17.555Z,64.10
2018-04-15T12:30:47.876Z,56.30
2018-04-15T12:33:18.129Z,60.73
2018-04-15T12:35:56.457Z,56.27
2018-04-15T12:38:25.924Z,59.20
2018-04-15T12:40:56.963Z,50.20
2018-04-15T12:43:28.938Z,58.70
2018-04-15T12:46:00.971Z,56.07
2018-04-15T12:48:30.439Z,51.13
2018-04-15T12:51:03.831Z,56.60
2018-04-15T12:53:37.301Z,56.60
2018-04-15T12:56:07.079Z,57.83
2018-04-15T12:58:38.908Z,54.90
2018-04-15T13:01:09.433Z,60.43
2018-04-15T13:03:42.623Z,54.27
2018-04-15T13:06:12.843Z,57.83
2018-04-15T13:08:44.498Z,64.83
2018-04-15T13:11:17.381Z,68.93
2018-04-15T13:13:48.647Z,70.57
2018-04-15T13:16:18.197Z,120.13
2018-04-15T13:18:59.134Z,142.60
2018-04-15T13:21:39.498Z,117.97
2018-04-15T13:31:03.769Z,140.80
2018-04-15T13:33:34.216Z,111.33
2018-04-15T13:36:05.091Z,111.37
2018-04-15T13:38:36.402Z,121.73
2018-04-15T13:41:07.826Z,117.93
2018-04-15T13:43:40.464Z,98.00
2018-04-15T13:46:10.884Z,87.80
2018-04-15T13:48:40.702Z,97.20
2018-04-15T13:51:11.178Z,85.47
2018-04-15T13:53:42.650Z,78.87
2018-04-15T13:59:01.866Z,66.20
2018-04-15T14:01:39.297Z,61.83
2018-04-15T14:04:14.187Z,68.30
2018-04-15T14:06:46.759Z,56.83
2018-04-15T14:14:44.676Z,67.93
2018-04-15T14:17:27.894Z,66.77
2018-04-15T14:26:16.132Z,60.20
2018-04-15T14:29:35.819Z,59.87
2018-04-15T14:32:05.442Z,62.13
2018-04-15T14:34:35.939Z,67.90
2018-04-15T14:40:26.479Z,73.30
2018-04-15T14:42:55.727Z,78.87
2018-04-15T14:45:27.010Z,75.77
2018-04-15T14:48:00.520Z,80.17
2018-04-15T14:50:29.995Z,93.10
2018-04-15T14:53:35.259Z,79.60
2018-04-15T14:56:06.792Z,78.27
2018-04-15T14:58:36.283Z,74.80
2018-04-15T15:01:06.748Z,58.70
2018-04-15T15:03:36.221Z,55.73
2018-04-15T15:06:06.489Z,67.17
2018-04-15T15:08:43.701Z,65.77
2018-04-15T15:11:22.109Z,41.63
2018-04-15T15:13:51.568Z,65.27
2018-04-15T15:16:28.493Z,39.73
2018-04-15T15:18:58.040Z,39.03
2018-04-15T15:21:27.507Z,43.83
2018-04-15T15:24:09.393Z,33.10
2018-04-15T15:26:39.095Z,33.07
2018-04-15T15:29:09.252Z,28.87
2018-04-15T15:31:38.795Z,38.00
2018-04-15T15:34:25.734Z,26.03
2018-04-15T15:37:03.330Z,22.40
2018-04-15T15:39:34.111Z,23.97
2018-04-15T15:42:04.338Z,26.97
2018-04-15T15:44:33.888Z,20.80
2018-04-15T15:47:03.369Z,22.23
2018-04-15T15:49:33.191Z,17.67
2018-04-15T15:52:02.760Z,18.00
2018-04-15T15:54:58.067Z,19.27
2018-04-15T15:57:28.902Z,18.80
2018-04-15T15:59:58.424Z,15.80
2018-04-15T16:02:27.823Z,17.97
2018-04-15T16:04:57.358Z,15.20
2018-04-15T16:07:32.161Z,13.23
2018-04-15T16:10:01.697Z,16.97
2018-04-15T16:12:31.633Z,14.40
2018-04-15T16:15:01.132Z,12.27
2018-04-15T16:17:38.484Z,14.20
2018-04-15T16:20:10.965Z,24.20
2018-04-15T16:22:40.555Z,14.53
2018-04-15T16:25:10.034Z,12.50
2018-04-15T16:27:39.625Z,11.20
2018-04-15T16:30:09.146Z,12.40
2018-04-15T16:32:39.569Z,9.77
2018-04-15T16:35:11.032Z,15.27
2018-04-15T16:37:40.407Z,12.03
2018-04-15T16:40:09.898Z,10.23
2018-04-15T16:42:39.530Z,10.10
2018-04-15T16:45:09.014Z,7.70
2018-04-15T16:47:38.764Z,11.97
2018-04-15T16:50:09.279Z,10.13
2018-04-15T16:56:01.770Z,14.77
2018-04-15T16:58:38.607Z,10.40
2018-04-15T17:01:08.093Z,9.50
2018-04-15T17:03:37.462Z,10.33
2018-04-15T17:06:06.918Z,12.30
2018-04-15T17:08:37.143Z,11.03
2018-04-15T17:11:06.574Z,14.00
2018-04-15T17:13:36.045Z,10.20
2018-04-15T17:16:06.868Z,9.23
2018-04-15T17:18:36.249Z,10.90
2018-04-15T17:21:05.746Z,14.83
2018-04-15T17:23:35.074Z,10.63
2018-04-15T17:26:04.510Z,10.43
2018-04-15T17:28:33.920Z,12.03
2018-04-15T17:31:03.335Z,13.80
2018-04-15T17:33:32.790Z,16.60
2018-04-15T17:36:02.208Z,13.77
2018-04-15T17:38:31.593Z,16.67
2018-04-15T17:41:01.533Z,14.03
2018-04-15T17:43:31.174Z,12.13
2018-04-15T17:46:00.600Z,12.80
2018-04-15T17:48:30.161Z,15.07
2018-04-15T17:51:00.599Z,15.37
2018-04-15T17:53:29.924Z,17.37
2018-04-15T17:55:59.362Z,15.07
2018-04-15T17:58:28.758Z,15.50
2018-04-15T18:00:58.190Z,16.27
2018-04-15T18:03:28.312Z,16.00
2018-04-15T18:05:59.445Z,16.93
2018-04-15T18:08:29.655Z,18.07
2018-04-15T18:10:59.072Z,16.13
2018-04-15T18:13:28.462Z,17.37
2018-04-15T18:15:57.882Z,18.37
2018-04-15T18:18:27.253Z,15.10
2018-04-15T18:20:56.686Z,18.50
2018-04-15T18:23:25.995Z,15.47
2018-04-15T18:25:56.201Z,17.10
2018-04-15T18:28:25.618Z,11.27
2018-04-15T18:30:55.058Z,12.90
2018-04-15T18:33:24.546Z,11.80
2018-04-15T18:35:53.913Z,15.23
2018-04-15T18:38:23.896Z,14.70
2018-04-15T18:40:53.332Z,17.00
2018-04-15T18:43:22.778Z,16.03
2018-04-15T18:45:52.249Z,11.93
2018-04-15T18:48:22.359Z,13.77
2018-04-15T18:50:51.911Z,10.70
2018-04-15T18:53:21.281Z,14.90
2018-04-15T18:55:51.511Z,13.00
2018-04-15T18:58:21.644Z,14.53
2018-04-15T19:00:52.085Z,12.03
2018-04-15T19:03:21.465Z,11.80
2018-04-15T19:05:50.912Z,18.93
2018-04-15T19:08:20.248Z,11.30
2018-04-15T19:10:49.704Z,16.00
2018-04-15T19:13:19.098Z,13.63
2018-04-15T19:19:10.104Z,15.40
2018-04-15T19:21:43.515Z,14.30
2018-04-15T19:24:17.462Z,13.90
2018-04-15T19:26:46.811Z,9.43
2018-04-15T19:29:16.336Z,9.97
2018-04-15T19:31:46.639Z,14.40
2018-04-15T19:34:16.183Z,10.10
2018-04-15T19:36:45.579Z,11.23
2018-04-15T19:39:14.924Z,16.20
2018-04-15T19:41:45.256Z,9.63
2018-04-15T19:44:16.179Z,15.57
2018-04-15T19:46:45.661Z,13.20
2018-04-15T19:49:15.009Z,12.17
2018-04-15T19:51:44.622Z,10.83
2018-04-15T19:54:14.061Z,12.00
2018-04-15T19:56:44.253Z,11.30
2018-04-15T19:59:13.606Z,13.07
2018-04-15T20:01:43.132Z,14.20
2018-04-15T20:04:12.473Z,13.90
2018-04-15T20:06:41.914Z,18.83
2018-04-15T20:09:11.493Z,12.03
2018-04-15T20:11:41.692Z,12.70
2018-04-15T20:14:11.178Z,8.23
2018-04-15T20:16:42.382Z,9.23
2018-04-15T20:19:14.757Z,9.67
2018-04-15T20:21:47.321Z,7.50
2018-04-15T20:24:16.869Z,10.17
2018-04-15T20:26:46.470Z,12.00
2018-04-15T20:29:21.469Z,9.53
2018-04-15T20:31:54.724Z,8.63
2018-04-15T20:34:25.512Z,13.37
2018-04-15T20:36:55.008Z,11.17
2018-04-15T20:39:32.328Z,13.67
2018-04-15T20:42:02.908Z,15.13
2018-04-15T20:44:32.295Z,18.67
2018-04-15T20:47:03.194Z,14.40
2018-04-15T20:49:34.423Z,9.87
2018-04-15T20:52:06.292Z,10.97
2018-04-15T20:54:38.511Z,13.33
2018-04-15T20:57:15.594Z,28.83
2018-04-15T20:59:52.215Z,10.80
2018-04-15T21:02:24.502Z,17.87
2018-04-15T21:04:57.834Z,17.97
2018-04-15T21:07:29.274Z,23.90
2018-04-15T21:10:00.359Z,14.73
2018-04-15T21:12:34.415Z,17.53
2018-04-15T21:15:05.624Z,8.80
2018-04-15T21:17:35.664Z,11.80
2018-04-15T21:20:05.235Z,13.73
2018-04-15T21:22:34.758Z,12.93
2018-04-15T21:25:11.277Z,12.63
2018-04-15T21:31:02.120Z,17.90
2018-04-15T21:33:31.652Z,11.03
2018-04-15T21:36:01.136Z,12.10
2018-04-15T21:38:30.753Z,11.10
2018-04-15T21:41:00.311Z,10.60
2018-04-15T21:43:34.186Z,11.03
2018-04-15T21:46:07.233Z,13.10
2018-04-15T21:48:38.588Z,10.90
2018-04-15T21:51:15.202Z,12.87
2018-04-15T21:53:47.152Z,9.77
2018-04-15T21:56:22.809Z,15.97
2018-04-15T21:58:53.327Z,16.33
2018-04-15T22:01:24.212Z,10.13
2018-04-15T22:03:53.818Z,15.57
2018-04-15T22:06:23.416Z,10.80
2018-04-15T22:08:52.930Z,13.00
2018-04-15T22:11:33.744Z,10.33
2018-04-15T22:14:03.273Z,10.03
2018-04-15T22:16:32.954Z,10.70
2018-04-15T22:19:02.552Z,11.20
2018-04-15T22:21:31.993Z,12.77
2018-04-15T22:24:01.618Z,14.00
2018-04-15T22:26:31.330Z,11.10
2018-04-15T22:29:01.712Z,11.93
2018-04-15T22:31:31.092Z,11.27
2018-04-15T22:34:01.811Z,8.40
2018-04-15T22:36:31.668Z,11.07
2018-04-15T22:39:02.619Z,9.30
2018-04-15T22:41:32.233Z,15.80
2018-04-15T22:44:08.173Z,11.43
2018-04-15T22:46:38.906Z,11.83
2018-04-15T22:49:16.400Z,12.20
2018-04-15T22:51:45.788Z,7.93
2018-04-15T22:54:20.239Z,8.40
2018-04-15T22:56:50.794Z,10.43
2018-04-15T22:59:20.338Z,7.80
2018-04-15T23:01:51.821Z,8.53
2018-04-15T23:04:21.336Z,9.53
2018-04-15T23:06:50.805Z,8.57
2018-04-15T23:09:22.585Z,10.27
2018-04-15T23:11:52.900Z,7.23
2018-04-15T23:14:22.856Z,7.90
2018-04-15T23:16:52.598Z,6.43
2018-04-15T23:19:23.388Z,7.07
2018-04-15T23:21:53.954Z,7.57
2018-04-15T23:24:25.752Z,5.27
2018-04-15T23:27:00.933Z,7.70
2018-04-15T23:30:22.463Z,6.23
2018-04-15T23:32:59.147Z,9.13
2018-04-15T23:35:36.593Z,8.57
2018-04-15T23:38:12.959Z,17.90
2018-04-15T23:40:46.495Z,7.83
2018-04-15T23:43:24.511Z,6.33
2018-04-15T23:45:57.588Z,9.63
2018-04-15T23:51:12.333Z,14.73
2018-04-15T23:53:45.720Z,10.43
2018-04-15T23:56:18.796Z,14.07
2018-04-15T23:58:53.281Z,14.97
